Time;durP1;ratioP1;P1;durP2;ratioP2;P2;SDS_P1;SDS_P2;PMS_P1;PMS_P2;Temp;Humidity;BMP_temperature;BMP_pressure;BME280_temperature;BME280_humidity;BME280_pressure;Samples;Min_cycle;Max_cycle;Signal;HPM_P1;HPM_P2
2022/06/13 00:01:24;;;;;;;19.93;3.67;;;13.10;99.90;;;;;;5051885;28;20647;-55
2022/06/13 00:03:50;;;;;;;18.83;4.03;;;13.30;99.90;;;;;;5051358;28;20177;-55
2022/06/13 00:06:17;;;;;;;12.85;3.38;;;13.30;99.90;;;;;;5051919;28;20231;-55
2022/06/13 00:08:43;;;;;;;16.55;3.42;;;13.30;99.90;;;;;;5052222;28;20199;-55
2022/06/13 00:11:13;;;;;;;15.23;3.70;;;13.30;99.90;;;;;;5069376;28;20643;-55
2022/06/13 00:13:41;;;;;;;14.63;3.90;;;13.30;99.90;;;;;;5057492;28;20180;-55
2022/06/13 00:16:08;;;;;;;15.05;3.50;;;13.30;99.90;;;;;;5052267;28;20181;-55
2022/06/13 00:18:35;;;;;;;19.80;3.17;;;13.30;99.90;;;;;;5051430;28;20177;-55
2022/06/13 00:21:01;;;;;;;15.13;4.05;;;13.20;99.90;;;;;;5052091;28;20539;-55
2022/06/13 00:23:27;;;;;;;16.07;3.50;;;13.20;99.90;;;;;;5051833;28;20624;-55
2022/06/13 00:25:52;;;;;;;12.33;2.90;;;13.20;99.90;;;;;;5051794;28;20215;-55
2022/06/13 00:28:18;;;;;;;20.93;3.37;;;13.20;99.90;;;;;;5051847;28;20661;-55
2022/06/13 00:30:44;;;;;;;17.87;4.23;;;12.90;99.90;;;;;;5051230;28;20510;-55
2022/06/13 00:33:09;;;;;;;18.15;3.45;;;13.10;99.90;;;;;;5051703;28;20181;-55
2022/06/13 00:35:35;;;;;;;15.57;3.22;;;13.00;99.90;;;;;;5051435;28;20181;-56
2022/06/13 00:38:01;;;;;;;19.40;3.20;;;13.10;99.90;;;;;;5051461;28;20672;-56
2022/06/13 00:40:30;;;;;;;13.20;3.38;;;13.30;99.90;;;;;;5051438;28;20185;-55
2022/06/13 00:42:56;;;;;;;16.05;3.75;;;13.00;99.90;;;;;;5050948;28;20177;-56
2022/06/13 00:45:25;;;;;;;14.50;3.40;;;12.80;99.90;;;;;;5051605;28;20196;-54
2022/06/13 00:47:53;;;;;;;21.10;3.57;;;12.90;99.90;;;;;;5051361;28;20220;-55
2022/06/13 00:50:30;;;;;;;10.80;3.03;;;12.90;99.90;;;;;;5050694;28;20644;-55
2022/06/13 00:53:15;;;;;;;12.50;2.73;;;12.80;99.90;;;;;;5050894;28;20574;-57
2022/06/13 00:55:48;;;;;;;15.10;3.67;;;12.80;99.90;;;;;;5051145;28;20185;-55
2022/06/13 00:58:14;;;;;;;16.63;3.37;;;12.50;99.90;;;;;;5050998;28;20184;-55
2022/06/13 01:00:43;;;;;;;15.53;3.40;;;12.70;99.90;;;;;;5050984;28;20649;-55
2022/06/13 01:03:10;;;;;;;15.07;2.93;;;12.70;99.90;;;;;;5050692;28;20185;-54
2022/06/13 01:05:42;;;;;;;14.77;3.38;;;12.70;99.90;;;;;;5050950;28;20273;-55
2022/06/13 01:08:09;;;;;;;18.87;3.20;;;12.70;99.90;;;;;;5050574;28;20192;-55
2022/06/13 01:13:42;;;;;;;18.90;3.63;;;12.50;99.90;;;;;;5053256;28;20245;-56
2022/06/13 01:16:25;;;;;;;10.57;3.23;;;12.50;99.90;;;;;;5068302;28;20287;-56
2022/06/13 01:19:01;;;;;;;12.40;3.70;;;12.50;99.90;;;;;;5051053;28;20170;-56
2022/06/13 01:22:08;;;;;;;15.43;3.72;;;12.50;99.90;;;;;;5051154;28;20199;-56
2022/06/13 01:24:43;;;;;;;13.27;3.37;;;12.40;99.90;;;;;;5040986;28;20255;-59
2022/06/13 01:27:20;;;;;;;13.27;3.13;;;12.40;99.90;;;;;;5050677;28;20286;-56
2022/06/13 01:30:03;;;;;;;12.27;3.07;;;12.40;99.90;;;;;;5050864;28;20275;-56
2022/06/13 01:32:41;;;;;;;12.30;2.90;;;12.30;99.90;;;;;;5050340;28;20181;-56
2022/06/13 01:35:39;;;;;;;14.47;3.03;;;12.30;99.90;;;;;;5050295;28;20180;-56
2022/06/13 01:38:31;;;;;;;16.02;2.85;;;12.30;99.90;;;;;;5049307;28;20593;-56
2022/06/13 01:41:11;;;;;;;12.77;3.10;;;12.30;99.90;;;;;;5048606;28;20189;-56
2022/06/13 01:44:00;;;;;;;10.40;3.10;;;12.20;99.90;;;;;;5049968;28;20286;-56
2022/06/13 01:46:38;;;;;;;13.73;3.03;;;12.30;99.90;;;;;;5050284;28;20774;-56
2022/06/13 01:49:19;;;;;;;16.90;3.07;;;12.10;99.90;;;;;;5041467;28;20213;-56
2022/06/13 01:52:07;;;;;;;11.33;2.80;;;12.10;99.90;;;;;;5046917;28;20180;-57
2022/06/13 01:54:59;;;;;;;11.67;2.87;;;12.10;99.90;;;;;;5049569;28;20180;-57
2022/06/13 01:57:44;;;;;;;13.90;3.10;;;12.10;99.90;;;;;;5050022;28;20180;-56
2022/06/13 02:00:15;;;;;;;12.87;2.90;;;12.00;99.90;;;;;;5049764;28;20192;-56
2022/06/13 02:03:19;;;;;;;10.67;2.83;;;12.00;99.90;;;;;;5051867;28;20678;-56
2022/06/13 02:05:55;;;;;;;9.70;2.17;;;12.00;99.90;;;;;;5030601;28;20189;-56
2022/06/13 02:08:32;;;;;;;12.53;2.80;;;12.00;99.90;;;;;;5039986;28;20181;-54
2022/06/13 02:11:14;;;;;;;8.00;2.10;;;11.90;99.90;;;;;;5050662;28;20556;-54
2022/06/13 02:13:51;;;;;;;7.93;2.37;;;11.90;99.90;;;;;;5049959;28;20244;-55
2022/06/13 02:16:25;;;;;;;13.10;2.80;;;11.90;99.90;;;;;;5050251;28;20200;-56
2022/06/13 02:19:02;;;;;;;11.47;2.70;;;11.90;99.90;;;;;;5050672;28;20245;-55
2022/06/13 02:21:50;;;;;;;8.47;2.60;;;11.80;99.90;;;;;;5070409;28;20168;-55
2022/06/13 02:24:24;;;;;;;11.47;2.60;;;11.90;99.90;;;;;;5046486;28;20174;-56
2022/06/13 02:26:56;;;;;;;14.90;2.93;;;11.90;99.90;;;;;;5051003;28;20212;-55
2022/06/13 02:29:35;;;;;;;14.93;3.30;;;11.90;99.90;;;;;;5053768;28;20197;-55
2022/06/13 02:32:11;;;;;;;10.20;2.30;;;11.90;99.90;;;;;;5054117;28;20209;-55
2022/06/13 02:34:42;;;;;;;8.63;2.20;;;11.90;99.90;;;;;;5053673;28;20221;-55
2022/06/13 02:37:19;;;;;;;8.00;2.83;;;11.90;99.90;;;;;;5053827;28;20216;-55
2022/06/13 02:40:15;;;;;;;15.30;2.77;;;11.80;99.90;;;;;;5053842;28;20177;-55
2022/06/13 02:42:58;;;;;;;10.87;2.50;;;11.90;99.90;;;;;;5053573;28;20173;-55
2022/06/13 02:45:39;;;;;;;11.47;3.00;;;11.80;99.90;;;;;;5054087;28;20179;-55
2022/06/13 02:48:12;;;;;;;20.83;2.73;;;11.80;99.90;;;;;;5053532;28;20303;-55
2022/06/13 02:51:08;;;;;;;14.20;2.77;;;11.70;99.90;;;;;;5053066;28;20276;-55
2022/06/13 02:53:41;;;;;;;10.47;2.83;;;11.70;99.90;;;;;;5053362;28;20178;-55
2022/06/13 02:56:34;;;;;;;14.47;2.60;;;11.70;99.90;;;;;;5053204;28;20636;-55
2022/06/13 02:59:09;;;;;;;17.00;3.10;;;11.60;99.90;;;;;;5046903;28;20189;-55
2022/06/13 03:01:44;;;;;;;11.87;2.57;;;11.60;99.90;;;;;;5053373;28;20176;-55
2022/06/13 03:04:17;;;;;;;8.40;2.30;;;11.60;99.90;;;;;;5052016;28;20172;-55
2022/06/13 03:06:54;;;;;;;10.07;2.63;;;11.50;99.90;;;;;;5053180;28;20315;-55
2022/06/13 03:09:31;;;;;;;9.90;2.43;;;11.50;99.90;;;;;;5033626;28;20177;-55
2022/06/13 03:12:24;;;;;;;12.33;2.87;;;11.50;99.90;;;;;;5048049;28;20172;-55
2022/06/13 03:15:22;;;;;;;9.83;2.40;;;11.50;99.90;;;;;;5053279;28;20624;-56
2022/06/13 03:18:11;;;;;;;15.03;2.60;;;11.50;99.90;;;;;;5039513;28;20284;-56
2022/06/13 03:20:40;;;;;;;17.43;3.30;;;11.50;99.90;;;;;;5052856;28;20646;-56
2022/06/13 03:23:12;;;;;;;11.23;2.60;;;11.50;99.90;;;;;;5052466;28;20185;-55
2022/06/13 03:25:47;;;;;;;10.93;2.57;;;11.60;99.90;;;;;;5069769;28;20175;-55
2022/06/13 03:28:15;;;;;;;17.33;3.30;;;11.40;99.90;;;;;;5056873;28;20200;-58
2022/06/13 03:31:06;;;;;;;9.93;2.47;;;11.40;99.90;;;;;;5052874;28;20177;-59
2022/06/13 03:33:41;;;;;;;8.23;2.30;;;11.40;99.90;;;;;;5052378;28;20181;-57
2022/06/13 03:36:15;;;;;;;9.40;2.60;;;11.60;99.90;;;;;;5053040;28;20214;-56
2022/06/13 03:38:47;;;;;;;11.47;2.60;;;11.40;99.90;;;;;;5051702;28;20184;-56
2022/06/13 03:41:16;;;;;;;13.53;2.67;;;11.40;99.90;;;;;;5052747;28;20307;-56
2022/06/13 03:43:44;;;;;;;17.57;2.90;;;11.40;99.90;;;;;;5052302;28;20181;-56
2022/06/13 03:46:42;;;;;;;11.73;2.70;;;11.30;99.90;;;;;;5052599;28;20205;-56
2022/06/13 03:49:17;;;;;;;12.17;2.77;;;11.30;99.90;;;;;;5036290;28;20216;-56
2022/06/13 03:51:47;;;;;;;13.70;2.43;;;11.30;99.90;;;;;;5052372;28;20180;-56
2022/06/13 03:54:36;;;;;;;14.10;2.53;;;11.30;99.90;;;;;;5052202;28;20256;-56
2022/06/13 03:57:34;;;;;;;12.07;2.70;;;11.40;99.90;;;;;;5037056;28;20239;-56
2022/06/13 04:00:03;;;;;;;9.97;2.57;;;11.40;99.90;;;;;;5051624;28;20284;-56
2022/06/13 04:02:32;;;;;;;11.63;2.50;;;11.40;99.90;;;;;;5052165;28;20176;-57
2022/06/13 04:04:58;;;;;;;11.87;2.60;;;11.40;99.90;;;;;;5052109;28;20184;-56
2022/06/13 04:07:27;;;;;;;9.97;2.43;;;11.40;99.90;;;;;;5052241;28;20212;-56
2022/06/13 04:10:00;;;;;;;10.30;2.60;;;11.40;99.90;;;;;;5034460;28;20644;-56
2022/06/13 04:13:03;;;;;;;11.00;2.53;;;11.40;99.90;;;;;;5050951;28;20208;-56
2022/06/13 04:15:34;;;;;;;12.83;2.20;;;11.40;99.90;;;;;;5049635;28;20678;-55
2022/06/13 04:18:05;;;;;;;7.40;2.33;;;11.40;99.90;;;;;;5052035;28;20189;-55
2022/06/13 04:21:09;;;;;;;7.50;2.20;;;11.40;99.90;;;;;;5052089;28;20315;-55
2022/06/13 04:24:00;;;;;;;9.20;1.97;;;11.40;99.90;;;;;;4998214;28;20182;-55
2022/06/13 04:26:50;;;;;;;7.13;2.30;;;11.50;99.90;;;;;;5049231;28;20246;-55
2022/06/13 04:29:36;;;;;;;9.03;2.37;;;11.40;99.90;;;;;;5060474;28;20176;-55
2022/06/13 04:32:09;;;;;;;16.53;2.30;;;11.50;99.90;;;;;;5061753;28;20173;-55
2022/06/13 04:34:40;;;;;;;10.67;2.40;;;11.40;99.90;;;;;;5047806;28;20173;-55
2022/06/13 04:37:06;;;;;;;10.93;2.40;;;11.30;99.90;;;;;;5051809;28;20181;-55
2022/06/13 04:39:37;;;;;;;15.63;2.07;;;11.50;99.90;;;;;;5051696;28;20188;-55
2022/06/13 04:42:06;;;;;;;10.00;2.30;;;11.30;99.90;;;;;;5051658;28;20256;-55
2022/06/13 04:44:35;;;;;;;12.70;2.53;;;11.30;99.90;;;;;;5050989;28;20181;-55
2022/06/13 04:47:02;;;;;;;11.20;2.23;;;11.20;99.90;;;;;;5051007;28;20219;-55
2022/06/13 04:49:45;;;;;;;8.93;2.37;;;11.20;99.90;;;;;;5050446;28;20607;-56
2022/06/13 04:52:16;;;;;;;16.63;2.60;;;11.20;99.90;;;;;;5050988;28;20260;-56
2022/06/13 04:54:48;;;;;;;11.97;2.20;;;11.20;99.90;;;;;;5050808;28;20169;-56
2022/06/13 04:57:17;;;;;;;10.63;2.03;;;11.20;99.90;;;;;;5050726;28;20170;-56
2022/06/13 04:59:44;;;;;;;7.20;2.27;;;11.30;99.90;;;;;;5050519;28;20170;-56
2022/06/13 05:02:17;;;;;;;11.10;2.20;;;11.30;99.90;;;;;;5050848;28;20173;-55
2022/06/13 05:04:43;;;;;;;7.67;2.30;;;11.30;99.90;;;;;;5050927;28;20199;-56
2022/06/13 05:07:15;;;;;;;7.43;2.20;;;11.40;99.90;;;;;;5050997;28;20667;-58
2022/06/13 05:09:49;;;;;;;10.03;2.03;;;11.60;99.90;;;;;;5051342;28;20184;-56
2022/06/13 05:12:27;;;;;;;10.77;2.43;;;11.60;99.90;;;;;;5050820;28;20173;-54
2022/06/13 05:15:01;;;;;;;12.00;2.60;;;11.70;99.90;;;;;;5031386;28;20198;-54
2022/06/13 05:17:45;;;;;;;6.63;2.10;;;11.60;99.90;;;;;;5039107;28;20184;-54
2022/06/13 05:20:27;;;;;;;13.77;2.07;;;11.80;99.90;;;;;;5047407;28;20239;-54
2022/06/13 05:23:10;;;;;;;6.67;1.90;;;11.90;99.90;;;;;;5049254;28;20189;-54
2022/06/13 05:25:46;;;;;;;9.07;1.90;;;12.00;99.90;;;;;;5035158;28;20180;-54
2022/06/13 05:28:18;;;;;;;10.90;1.90;;;12.10;99.90;;;;;;5050752;28;20208;-55
2022/06/13 05:30:46;;;;;;;11.03;1.93;;;12.20;99.90;;;;;;5050382;28;20262;-55
2022/06/13 05:33:17;;;;;;;7.33;1.93;;;12.20;99.90;;;;;;5066861;28;20726;-54
2022/06/13 05:35:45;;;;;;;8.10;2.40;;;12.30;99.90;;;;;;5065556;28;20177;-54
2022/06/13 05:38:17;;;;;;;10.13;1.87;;;12.30;99.90;;;;;;5050337;28;20181;-54
2022/06/13 05:40:43;;;;;;;9.60;1.60;;;12.40;99.90;;;;;;5050430;28;20247;-54
2022/06/13 05:43:10;;;;;;;6.27;2.00;;;12.80;99.90;;;;;;5050203;28;20183;-54
2022/06/13 05:45:39;;;;;;;9.57;1.80;;;12.60;99.90;;;;;;5050630;28;20169;-54
2022/06/13 05:48:11;;;;;;;7.47;1.80;;;12.70;99.90;;;;;;5050249;28;20229;-54
2022/06/13 05:50:37;;;;;;;4.10;1.40;;;12.70;99.90;;;;;;5050073;28;20611;-54
2022/06/13 05:53:02;;;;;;;15.67;1.70;;;12.80;99.90;;;;;;5049468;28;20208;-54
2022/06/13 05:55:28;;;;;;;6.80;1.37;;;12.90;99.90;;;;;;5049997;28;20180;-54
2022/06/13 05:57:54;;;;;;;6.43;1.63;;;;;;;;;;5050259;28;20480;-55
2022/06/13 06:00:27;;;;;;;4.83;1.50;;;13.00;99.90;;;;;;5050131;28;20173;-55
2022/06/13 06:02:52;;;;;;;7.40;1.50;;;13.10;99.90;;;;;;5048736;28;20635;-55
2022/06/13 06:05:18;;;;;;;5.90;1.58;;;13.00;99.90;;;;;;5049183;28;20230;-55
2022/06/13 06:07:44;;;;;;;6.40;1.65;;;13.20;99.90;;;;;;5049825;28;20295;-55
2022/06/13 06:10:23;;;;;;;14.33;1.93;;;13.40;99.90;;;;;;5049541;28;20180;-55
2022/06/13 06:12:48;;;;;;;5.22;1.35;;;13.30;99.90;;;;;;5050120;28;20215;-56
2022/06/13 06:15:14;;;;;;;4.90;2.05;;;13.40;99.90;;;;;;5050361;28;20177;-55
2022/06/13 06:17:40;;;;;;;7.05;1.60;;;13.40;99.90;;;;;;5049999;28;20177;-55
2022/06/13 06:20:06;;;;;;;10.83;2.00;;;13.70;99.90;;;;;;5049972;28;20177;-55
2022/06/13 06:22:31;;;;;;;7.93;1.40;;;13.50;99.90;;;;;;5049394;28;20192;-55
2022/06/13 06:24:58;;;;;;;7.97;1.90;;;13.60;99.90;;;;;;5050351;28;20631;-55
2022/06/13 06:27:23;;;;;;;8.00;1.95;;;13.60;99.90;;;;;;5050035;28;20282;-55
2022/06/13 06:29:49;;;;;;;7.05;1.50;;;13.60;99.90;;;;;;5049812;28;20689;-55
2022/06/13 06:32:15;;;;;;;9.48;1.60;;;13.70;99.90;;;;;;5049886;28;20177;-55
2022/06/13 06:34:41;;;;;;;8.23;1.88;;;14.20;99.90;;;;;;5050367;28;20252;-55
2022/06/13 06:37:07;;;;;;;9.18;1.83;;;13.80;99.90;;;;;;5049853;28;20174;-55
2022/06/13 06:39:33;;;;;;;8.80;1.90;;;13.90;99.90;;;;;;5062393;28;20256;-55
2022/06/13 06:41:59;;;;;;;5.18;1.42;;;13.90;99.90;;;;;;5062078;28;20260;-55
2022/06/13 06:44:24;;;;;;;5.93;1.77;;;13.90;99.90;;;;;;5048821;28;20227;-55
2022/06/13 06:46:50;;;;;;;6.03;1.50;;;14.00;99.90;;;;;;5049403;28;20205;-57
2022/06/13 06:49:16;;;;;;;7.35;1.52;;;14.00;99.90;;;;;;5049747;28;20177;-55
2022/06/13 06:51:43;;;;;;;6.32;1.63;;;14.10;99.90;;;;;;5049479;28;20222;-55
2022/06/13 06:59:55;;;;;;;6.13;1.60;;;14.30;99.90;;;;;;5049539;28;20263;-55
2022/06/13 07:02:27;;;;;;;6.75;1.27;;;14.30;99.90;;;;;;5047587;28;20588;-55
2022/06/13 07:04:54;;;;;;;6.35;1.50;;;14.30;99.90;;;;;;5048853;28;20166;-55
2022/06/13 07:07:21;;;;;;;5.75;1.35;;;14.40;99.90;;;;;;5049337;28;20274;-55
2022/06/13 07:09:47;;;;;;;5.88;1.70;;;14.40;99.90;;;;;;5049381;28;20848;-55
2022/06/13 07:12:13;;;;;;;7.30;1.50;;;14.50;99.90;;;;;;5069076;28;20536;-56
2022/06/13 07:14:39;;;;;;;2.90;1.27;;;14.50;99.90;;;;;;5067388;28;20186;-59
2022/06/13 07:17:07;;;;;;;7.40;1.35;;;14.60;99.90;;;;;;5053382;28;20246;-60
2022/06/13 07:19:34;;;;;;;5.70;1.33;;;14.60;99.90;;;;;;5052875;28;20256;-61
2022/06/13 07:22:01;;;;;;;4.68;1.42;;;14.70;99.90;;;;;;5053175;28;20178;-57
2022/06/13 07:24:28;;;;;;;3.95;1.35;;;14.70;99.90;;;;;;5048712;28;20177;-67
2022/06/13 07:26:54;;;;;;;6.50;1.65;;;14.70;99.90;;;;;;5052993;28;20205;-67
2022/06/13 07:29:21;;;;;;;5.47;1.63;;;14.80;99.90;;;;;;5073438;28;20173;-67
2022/06/13 07:31:58;;;;;;;5.78;1.50;;;15.00;99.90;;;;;;5055007;28;20679;-69
2022/06/13 07:34:26;;;;;;;2.67;1.48;;;14.20;99.90;;;;;;5051878;28;20177;-67
2022/06/13 07:36:55;;;;;;;8.82;1.73;;;15.10;99.90;;;;;;5051585;28;20180;-64
2022/06/13 07:39:20;;;;;;;6.35;1.77;;;15.20;99.90;;;;;;5053042;28;20184;-56
2022/06/13 07:41:47;;;;;;;6.95;1.40;;;15.20;99.90;;;;;;5051977;28;20177;-55
2022/06/13 07:44:25;;;;;;;5.05;2.05;;;15.20;99.90;;;;;;5061068;28;20168;-56
2022/06/13 07:46:51;;;;;;;5.38;1.88;;;15.30;99.90;;;;;;5072947;28;20214;-61
2022/06/13 07:49:19;;;;;;;7.75;1.38;;;15.30;99.90;;;;;;5053805;28;20663;-56
2022/06/13 07:51:45;;;;;;;6.07;1.40;;;15.50;99.90;;;;;;5052072;28;20181;-55
2022/06/13 07:54:11;;;;;;;5.38;1.48;;;15.60;99.90;;;;;;5051631;28;20177;-60
2022/06/13 07:56:38;;;;;;;5.55;1.63;;;15.50;99.90;;;;;;5056239;28;20250;-61
2022/06/13 07:59:05;;;;;;;7.53;1.58;;;15.60;99.90;;;;;;5072973;28;20204;-62
2022/06/13 08:01:31;;;;;;;3.60;1.20;;;15.70;99.90;;;;;;5055852;28;20170;-62
2022/06/13 08:03:58;;;;;;;9.73;1.90;;;15.80;99.90;;;;;;5053058;28;20223;-62
2022/06/13 08:06:26;;;;;;;6.00;1.63;;;15.90;99.90;;;;;;5052394;28;20270;-61
2022/06/13 08:08:52;;;;;;;4.47;1.10;;;16.10;99.90;;;;;;5051716;28;20647;-63
2022/06/13 08:11:24;;;;;;;9.98;1.58;;;16.10;99.90;;;;;;5051633;28;20241;-60
2022/06/13 08:13:50;;;;;;;7.35;1.50;;;16.10;99.90;;;;;;5051937;28;20178;-59
2022/06/13 08:16:15;;;;;;;5.05;1.60;;;16.20;99.90;;;;;;5038913;28;20698;-60
2022/06/13 08:18:42;;;;;;;5.00;1.38;;;;;;;;;;5052295;28;20189;-61
2022/06/13 08:21:08;;;;;;;3.40;1.45;;;16.20;99.90;;;;;;5052290;28;20663;-61
2022/06/13 08:23:34;;;;;;;6.70;1.25;;;17.20;99.90;;;;;;5052067;28;20177;-60
2022/06/13 08:26:00;;;;;;;4.10;1.20;;;16.30;99.90;;;;;;5051546;28;20177;-62
2022/06/13 08:28:27;;;;;;;2.42;1.23;;;16.50;99.90;;;;;;5051620;28;20175;-61
2022/06/13 08:30:58;;;;;;;4.68;1.45;;;16.80;99.90;;;;;;5052326;28;20171;-59
2022/06/13 08:33:24;;;;;;;5.85;1.35;;;17.00;99.90;;;;;;5052092;28;20165;-63
2022/06/13 08:35:50;;;;;;;3.30;1.25;;;17.20;99.90;;;;;;5033689;28;20177;-57
2022/06/13 08:38:16;;;;;;;4.03;1.42;;;17.40;99.90;;;;;;5051388;28;20268;-56
2022/06/13 08:40:56;;;;;;;4.28;1.38;;;17.40;99.90;;;;;;5051443;28;20578;-56
2022/06/13 08:43:43;;;;;;;3.05;1.30;;;17.60;99.90;;;;;;5051502;28;20181;-56
2022/06/13 08:46:36;;;;;;;3.70;1.38;;;18.10;99.90;;;;;;5051253;28;20208;-57
2022/06/13 08:49:27;;;;;;;5.18;1.60;;;18.90;99.90;;;;;;5051195;28;20232;-56
2022/06/13 08:52:26;;;;;;;4.32;1.20;;;19.50;99.90;;;;;;5052677;28;20253;-63
2022/06/13 08:55:10;;;;;;;5.15;1.00;;;19.40;99.90;;;;;;5062414;28;20173;-64
2022/06/13 08:57:46;;;;;;;3.25;1.25;;;19.70;99.90;;;;;;5051743;28;20177;-64
2022/06/13 09:00:26;;;;;;;5.03;1.42;;;19.10;99.90;;;;;;5050889;28;20243;-64
2022/06/13 09:02:52;;;;;;;4.53;1.60;;;19.10;99.90;;;;;;5051245;28;20628;-64
2022/06/13 09:05:36;;;;;;;3.00;1.40;;;19.10;99.90;;;;;;5050043;28;20188;-64
2022/06/13 09:08:27;;;;;;;3.70;1.25;;;19.00;99.90;;;;;;5050758;28;20300;-64
2022/06/13 09:11:11;;;;;;;2.33;1.20;;;18.60;99.90;;;;;;5049039;28;20680;-64
2022/06/13 09:13:47;;;;;;;2.30;1.13;;;18.90;99.90;;;;;;5050085;28;20339;-64
2022/06/13 09:16:15;;;;;;;4.03;1.33;;;19.90;99.90;;;;;;5049509;28;20245;-65
2022/06/13 09:18:57;;;;;;;4.65;1.45;;;20.20;99.90;;;;;;5050747;28;20184;-64
2022/06/13 09:21:37;;;;;;;5.78;1.35;;;20.50;99.90;;;;;;5051049;28;20177;-63
2022/06/13 09:24:06;;;;;;;4.22;1.33;;;20.00;99.90;;;;;;5051108;28;20636;-64
2022/06/13 09:26:43;;;;;;;3.83;1.33;;;20.10;99.90;;;;;;5050758;28;20213;-65
2022/06/13 09:29:22;;;;;;;2.35;1.20;;;20.00;99.90;;;;;;5050834;28;20173;-65
2022/06/13 09:31:59;;;;;;;1.75;0.90;;;19.90;99.90;;;;;;5051145;28;20157;-57
2022/06/13 09:34:45;;;;;;;3.35;1.13;;;20.20;99.90;;;;;;5050664;28;20200;-57
2022/06/13 09:37:30;;;;;;;5.80;1.42;;;20.30;99.90;;;;;;5030155;28;20269;-57
2022/06/13 09:39:56;;;;;;;4.68;1.48;;;19.80;99.90;;;;;;5048837;28;20181;-59
2022/06/13 09:42:33;;;;;;;4.65;1.58;;;19.30;99.90;;;;;;5046301;28;20177;-57
2022/06/13 09:45:23;;;;;;;2.80;1.40;;;19.30;99.90;;;;;;5042706;28;20206;-57
2022/06/13 09:48:07;;;;;;;5.22;1.20;;;19.70;99.90;;;;;;5049715;28;20229;-56
2022/06/13 09:50:55;;;;;;;3.47;1.15;;;19.70;99.90;;;;;;5050618;28;20188;-60
2022/06/13 09:53:28;;;;;;;3.22;1.40;;;19.70;99.90;;;;;;5050288;28;20174;-57
2022/06/13 09:56:04;;;;;;;2.03;1.20;;;20.00;99.90;;;;;;5048347;28;20192;-57
2022/06/13 09:59:09;;;;;;;6.40;1.60;;;20.00;99.90;;;;;;5048353;28;20540;-56
2022/06/13 10:01:38;;;;;;;7.03;1.48;;;19.70;99.90;;;;;;5030887;28;20185;-57
2022/06/13 10:04:16;;;;;;;4.25;1.40;;;19.70;99.90;;;;;;5049313;28;20248;-57
2022/06/13 10:06:49;;;;;;;6.63;1.60;;;19.40;99.90;;;;;;5048826;28;20243;-57
2022/06/13 10:09:36;;;;;;;3.88;1.50;;;19.40;99.90;;;;;;5048513;28;20158;-57
2022/06/13 10:12:35;;;;;;;5.90;1.48;;;19.60;99.90;;;;;;5048376;28;20207;-57
2022/06/13 10:15:16;;;;;;;5.25;1.35;;;19.60;99.90;;;;;;5048971;28;20169;-57
2022/06/13 10:17:56;;;;;;;6.88;1.48;;;19.90;99.90;;;;;;5049095;28;20176;-56
2022/06/13 10:20:41;;;;;;;5.88;1.45;;;19.80;99.90;;;;;;5049089;28;20181;-57
2022/06/13 10:23:16;;;;;;;4.50;1.92;;;19.80;99.90;;;;;;5049633;28;20166;-57
2022/06/13 10:26:12;;;;;;;4.80;1.25;;;19.60;99.90;;;;;;5050364;28;20165;-57
2022/06/13 10:28:53;;;;;;;4.90;1.45;;;19.70;99.90;;;;;;5050480;28;20219;-57
2022/06/13 10:31:32;;;;;;;3.63;1.45;;;20.00;99.90;;;;;;5050453;28;20204;-57
2022/06/13 10:34:32;;;;;;;8.30;1.70;;;20.00;99.90;;;;;;5050357;28;20166;-57
2022/06/13 10:37:19;;;;;;;9.23;1.80;;;20.60;99.90;;;;;;5026673;28;20203;-55
2022/06/13 10:39:46;;;;;;;6.07;1.83;;;21.00;99.90;;;;;;5049974;28;20264;-56
2022/06/13 10:42:18;;;;;;;5.03;1.70;;;20.80;99.90;;;;;;5050195;28;20640;-57
2022/06/13 10:44:44;;;;;;;4.25;1.70;;;20.40;99.90;;;;;;5050057;28;20248;-56
2022/06/13 10:47:25;;;;;;;6.82;1.73;;;20.30;99.90;;;;;;5048598;28;20304;-57
2022/06/13 10:50:14;;;;;;;6.15;1.98;;;20.60;99.90;;;;;;5054149;28;20243;-57
2022/06/13 10:52:43;;;;;;;4.13;1.50;;;21.40;99.90;;;;;;5036086;28;20196;-57
2022/06/13 10:55:13;;;;;;;4.53;1.75;;;21.80;99.90;;;;;;5053948;28;20173;-56
2022/06/13 10:57:47;;;;;;;5.35;1.70;;;22.50;99.90;;;;;;5053703;28;20165;-57
2022/06/13 11:00:27;;;;;;;4.43;1.80;;;23.00;99.90;;;;;;5053738;28;20181;-57
2022/06/13 11:03:14;;;;;;;7.38;1.95;;;22.80;99.90;;;;;;5053752;28;20173;-57
2022/06/13 11:05:55;;;;;;;5.10;1.55;;;22.40;99.90;;;;;;5053741;28;20173;-57
2022/06/13 11:08:22;;;;;;;5.82;1.80;;;22.50;99.90;;;;;;5053890;28;20243;-57
2022/06/13 11:10:57;;;;;;;4.30;1.85;;;21.50;99.90;;;;;;5053656;28;20180;-57
2022/06/13 11:13:36;;;;;;;6.05;2.00;;;21.20;99.90;;;;;;5035668;28;20584;-57
2022/06/13 11:22:37;;;;;;;3.78;1.60;;;21.80;99.90;;;;;;5053702;28;20172;-58
2022/06/13 11:22:43;;;;;;;4.45;1.52;;;20.90;99.90;;;;;;5053377;28;20188;-57
2022/06/13 11:25:29;;;;;;;5.35;2.00;;;21.60;99.90;;;;;;5053309;28;20176;-56
2022/06/13 11:28:25;;;;;;;6.85;1.92;;;22.20;99.90;;;;;;5053251;28;20209;-57
2022/06/13 11:31:14;;;;;;;6.18;2.08;;;22.30;99.90;;;;;;5053031;28;20640;-57
2022/06/13 11:33:40;;;;;;;4.85;1.70;;;22.10;99.90;;;;;;5044069;28;20273;-57
2022/06/13 11:36:14;;;;;;;5.35;1.60;;;21.80;99.90;;;;;;5053249;28;20608;-56
2022/06/13 11:38:54;;;;;;;4.10;1.65;;;22.00;99.90;;;;;;5033062;28;20216;-57
2022/06/13 11:41:42;;;;;;;6.18;1.88;;;21.80;99.90;;;;;;5032978;28;20178;-57
2022/06/13 11:44:11;;;;;;;11.65;1.73;;;21.10;99.90;;;;;;5031738;28;20269;-57
2022/06/13 11:46:42;;;;;;;7.78;2.10;;;21.00;99.90;;;;;;5033127;28;20198;-57
2022/06/13 11:49:14;;;;;;;9.23;1.85;;;20.90;99.90;;;;;;5031577;28;20222;-57
2022/06/13 11:52:01;;;;;;;4.97;1.67;;;20.90;99.90;;;;;;5032923;28;20188;-58
2022/06/13 11:54:39;;;;;;;8.52;1.80;;;21.10;99.90;;;;;;5033120;28;20203;-57
2022/06/13 11:57:27;;;;;;;7.53;1.98;;;20.70;99.90;;;;;;5032808;28;20224;-57
2022/06/13 12:00:12;;;;;;;5.05;1.70;;;20.90;99.90;;;;;;5026099;28;20224;-57
2022/06/13 12:02:50;;;;;;;6.82;1.95;;;21.00;99.90;;;;;;5032456;28;20648;-57
2022/06/13 12:05:22;;;;;;;5.43;1.67;;;21.20;99.90;;;;;;5033001;28;20224;-57
2022/06/13 12:07:58;;;;;;;9.23;2.20;;;21.00;99.90;;;;;;5032504;28;20209;-57
2022/06/13 12:10:27;;;;;;;3.80;1.70;;;20.90;99.90;;;;;;5032557;28;20181;-56
2022/06/13 12:12:53;;;;;;;8.05;1.83;;;21.30;99.90;;;;;;5032672;28;20257;-57
2022/06/13 12:15:22;;;;;;;7.43;1.75;;;21.30;99.90;;;;;;5032440;28;20170;-57
2022/06/13 12:17:57;;;;;;;5.72;1.50;;;21.40;99.90;;;;;;5032397;28;20189;-58
2022/06/13 12:20:44;;;;;;;6.65;1.70;;;20.90;99.90;;;;;;5032335;28;20177;-55
2022/06/13 12:23:13;;;;;;;5.03;1.70;;;20.90;99.90;;;;;;5032476;28;20277;-59
2022/06/13 12:25:55;;;;;;;5.50;1.80;;;20.90;99.90;;;;;;5013861;28;20200;-58
2022/06/13 12:28:25;;;;;;;6.90;1.88;;;21.10;99.90;;;;;;5032010;28;20213;-58
2022/06/13 12:31:14;;;;;;;6.35;1.90;;;21.30;99.90;;;;;;5032202;28;20170;-58
2022/06/13 12:33:54;;;;;;;9.98;1.88;;;21.20;99.90;;;;;;5032200;28;20671;-57
2022/06/13 12:36:46;;;;;;;5.13;1.83;;;20.90;99.90;;;;;;5032046;28;20201;-57
2022/06/13 12:39:35;;;;;;;5.53;1.88;;;21.00;99.90;;;;;;5032186;28;20174;-57
2022/06/13 12:42:19;;;;;;;6.25;1.80;;;21.20;99.90;;;;;;5032209;28;20193;-57
2022/06/13 12:45:00;;;;;;;9.68;1.85;;;21.40;99.90;;;;;;5032039;28;20173;-58
2022/06/13 12:47:29;;;;;;;5.53;1.73;;;22.10;99.90;;;;;;5031781;28;20299;-58
2022/06/13 12:50:28;;;;;;;6.90;1.60;;;22.70;99.90;;;;;;5030447;28;20635;-57
2022/06/13 12:52:56;;;;;;;4.03;1.50;;;24.00;99.90;;;;;;5031823;28;20177;-58
2022/06/13 12:55:46;;;;;;;6.28;1.85;;;24.30;99.90;;;;;;5031867;28;20197;-58
2022/06/13 12:58:41;;;;;;;6.88;2.08;;;22.00;99.90;;;;;;5031694;28;20238;-57
2022/06/13 13:01:22;;;;;;;5.80;2.20;;;21.90;99.90;;;;;;5031831;28;20650;-57
2022/06/13 13:03:55;;;;;;;6.38;1.75;;;21.50;99.90;;;;;;5031546;28;20525;-58
2022/06/13 13:06:45;;;;;;;5.55;1.50;;;21.20;99.90;;;;;;5031437;28;20645;-58
2022/06/13 13:09:14;;;;;;;8.18;2.00;;;20.90;99.90;;;;;;5031634;28;20178;-58
2022/06/13 13:12:01;;;;;;;10.35;2.13;;;22.20;99.90;;;;;;5031219;28;20832;-58
2022/06/13 13:14:46;;;;;;;16.40;2.25;;;22.60;99.90;;;;;;5031438;28;20204;-58
2022/06/13 13:17:17;;;;;;;7.55;2.05;;;23.00;99.90;;;;;;5031473;28;20189;-58
2022/06/13 13:19:46;;;;;;;6.97;1.65;;;22.80;99.90;;;;;;5031454;28;20185;-58
2022/06/13 13:22:39;;;;;;;9.68;1.90;;;23.00;99.90;;;;;;5031292;28;20224;-58
2022/06/13 13:25:25;;;;;;;10.63;1.98;;;22.00;99.90;;;;;;5031187;28;20229;-58
2022/06/13 13:28:08;;;;;;;7.00;1.88;;;21.50;99.90;;;;;;5031010;28;20577;-57
2022/06/13 13:30:55;;;;;;;5.68;1.85;;;23.00;99.90;;;;;;5030064;28;20173;-57
2022/06/13 13:33:58;;;;;;;6.80;2.03;;;23.30;99.90;;;;;;5030922;28;20169;-57
2022/06/13 13:36:47;;;;;;;10.10;1.60;;;24.80;99.90;;;;;;5030857;28;20248;-57
2022/06/13 13:39:36;;;;;;;4.45;1.73;;;25.40;99.90;;;;;;5034328;28;20178;-57